createdAt,value
2023-05-24T00:02:28.343Z,15.77
2023-05-24T00:05:00.949Z,15.10
2023-05-24T00:07:32.440Z,18.95
2023-05-24T00:10:00.626Z,16.67
2023-05-24T00:12:29.204Z,16.10
2023-05-24T00:14:57.608Z,15.60
2023-05-24T00:17:26.622Z,15.57
2023-05-24T00:19:55.017Z,16.63
2023-05-24T00:22:23.718Z,15.65
2023-05-24T00:24:53.386Z,16.70
2023-05-24T00:27:22.367Z,19.65
2023-05-24T00:29:50.806Z,18.08
2023-05-24T00:32:19.499Z,17.83
2023-05-24T00:34:47.818Z,17.00
2023-05-24T00:37:16.433Z,19.45
2023-05-24T00:39:44.758Z,18.88
2023-05-24T00:42:14.623Z,19.55
2023-05-24T00:44:43.070Z,17.42
2023-05-24T00:47:12.104Z,20.45
2023-05-24T00:49:40.451Z,18.55
2023-05-24T00:52:09.953Z,18.80
2023-05-24T00:54:40.909Z,21.60
2023-05-24T00:59:39.072Z,24.98
2023-05-24T01:02:07.644Z,19.08
2023-05-24T01:04:37.951Z,20.85
2023-05-24T01:07:14.717Z,23.23
2023-05-24T01:09:57.772Z,23.35
2023-05-24T01:12:31.582Z,22.25
2023-05-24T01:15:10.665Z,17.77
2023-05-24T01:17:48.562Z,17.77
2023-05-24T01:20:19.745Z,22.17
2023-05-24T01:23:09.165Z,19.17
2023-05-24T01:25:47.068Z,19.63
2023-05-24T01:28:18.205Z,18.05
2023-05-24T01:30:46.993Z,18.33
2023-05-24T01:33:15.801Z,17.38
2023-05-24T01:35:44.143Z,15.32
2023-05-24T01:38:12.833Z,16.38
2023-05-24T01:40:42.311Z,15.55
2023-05-24T01:43:19.068Z,17.08
2023-05-24T01:45:54.416Z,16.35
2023-05-24T01:48:32.642Z,16.80
2023-05-24T01:51:03.026Z,15.95
2023-05-24T01:53:35.325Z,20.10
2023-05-24T01:56:05.093Z,18.83
2023-05-24T01:58:35.119Z,16.45
2023-05-24T02:01:03.649Z,20.05
2023-05-24T02:03:33.015Z,18.38
2023-05-24T02:06:01.496Z,17.67
2023-05-24T02:08:30.031Z,18.17
2023-05-24T02:10:58.529Z,23.08
2023-05-24T02:13:26.978Z,19.88
2023-05-24T02:15:56.645Z,20.23
2023-05-24T02:18:25.274Z,23.02
2023-05-24T02:20:53.618Z,21.25
2023-05-24T02:23:22.166Z,22.98
2023-05-24T02:25:50.793Z,22.65
2023-05-24T02:28:19.405Z,21.00
2023-05-24T02:30:47.908Z,22.75
2023-05-24T02:33:17.875Z,22.88
2023-05-24T02:35:46.355Z,22.60
2023-05-24T02:38:14.963Z,21.23
2023-05-24T02:40:43.610Z,23.38
2023-05-24T02:43:12.440Z,22.65
2023-05-24T02:45:40.773Z,22.02
2023-05-24T02:48:09.827Z,25.38
2023-05-24T02:50:39.596Z,23.63
2023-05-24T02:53:08.877Z,21.95
2023-05-24T02:55:38.071Z,22.73
2023-05-24T02:58:08.557Z,26.40
2023-05-24T03:00:37.379Z,23.60
2023-05-24T03:03:06.199Z,23.15
2023-05-24T03:05:34.730Z,23.85
2023-05-24T03:08:05.081Z,21.42
2023-05-24T03:10:33.394Z,19.95
2023-05-24T03:13:02.033Z,20.63
2023-05-24T03:15:30.850Z,22.40
2023-05-24T03:17:59.738Z,21.30
2023-05-24T03:20:28.461Z,17.85
2023-05-24T03:22:57.143Z,19.00
2023-05-24T03:25:27.508Z,20.67
2023-05-24T03:27:56.065Z,22.73
2023-05-24T03:30:24.828Z,20.75
2023-05-24T03:32:53.475Z,19.17
2023-05-24T03:35:21.839Z,18.10
2023-05-24T03:37:50.905Z,19.60
2023-05-24T03:40:19.268Z,16.95
2023-05-24T03:42:49.313Z,16.65
2023-05-24T03:45:27.034Z,15.30
2023-05-24T03:48:03.940Z,15.55
2023-05-24T03:50:32.373Z,15.45
2023-05-24T03:53:01.252Z,17.45
2023-05-24T03:55:29.528Z,14.77
2023-05-24T03:57:59.757Z,17.30
2023-05-24T04:00:28.340Z,15.45
2023-05-24T04:02:57.038Z,19.35
2023-05-24T04:05:27.335Z,23.25
2023-05-24T04:07:55.933Z,25.38
2023-05-24T04:10:24.250Z,26.27
2023-05-24T04:12:53.042Z,28.40
2023-05-24T04:15:23.141Z,27.23
2023-05-24T04:17:55.382Z,25.88
2023-05-24T04:20:25.978Z,28.17
2023-05-24T04:22:56.268Z,24.08
2023-05-24T04:25:25.012Z,22.70
2023-05-24T04:27:53.755Z,17.85
2023-05-24T04:30:23.600Z,17.48
2023-05-24T04:32:52.902Z,21.80
2023-05-24T04:35:21.744Z,16.85
2023-05-24T04:37:50.518Z,18.63
2023-05-24T04:40:20.792Z,18.02
2023-05-24T04:42:51.787Z,15.80
2023-05-24T04:45:20.135Z,14.88
2023-05-24T04:47:51.388Z,13.70
2023-05-24T04:50:19.587Z,15.52
2023-05-24T04:52:48.453Z,13.85
2023-05-24T04:55:16.712Z,15.10
2023-05-24T04:57:45.482Z,14.20
2023-05-24T05:00:15.066Z,14.82
2023-05-24T05:02:43.626Z,14.48
2023-05-24T05:05:13.714Z,13.68
2023-05-24T05:07:42.247Z,12.90
2023-05-24T05:10:10.924Z,12.00
2023-05-24T05:12:40.117Z,11.85
2023-05-24T05:15:10.563Z,10.80
2023-05-24T05:17:39.162Z,11.40
2023-05-24T05:20:09.151Z,9.07
2023-05-24T05:22:39.247Z,9.00
2023-05-24T05:25:08.101Z,10.10
2023-05-24T05:27:36.801Z,11.00
2023-05-24T05:30:05.863Z,13.68
2023-05-24T05:32:34.517Z,11.07
2023-05-24T05:35:02.852Z,11.48
2023-05-24T05:37:31.495Z,9.93
2023-05-24T05:40:01.243Z,8.85
2023-05-24T05:42:30.034Z,8.38
2023-05-24T05:44:58.549Z,9.57
2023-05-24T05:47:27.579Z,7.78
2023-05-24T05:49:59.903Z,10.43
2023-05-24T05:52:28.828Z,10.98
2023-05-24T05:54:57.231Z,9.85
2023-05-24T05:57:27.609Z,9.57
2023-05-24T05:59:55.952Z,7.60
2023-05-24T06:02:24.777Z,9.88
2023-05-24T06:04:53.603Z,8.10
2023-05-24T06:07:22.361Z,9.73
2023-05-24T06:09:50.685Z,10.55
2023-05-24T06:12:19.201Z,11.45
2023-05-24T06:14:50.749Z,21.75
2023-05-24T06:17:19.692Z,15.73
2023-05-24T06:19:47.930Z,8.70
2023-05-24T06:22:17.790Z,11.50
2023-05-24T06:24:46.048Z,16.13
2023-05-24T06:27:14.717Z,8.02
2023-05-24T06:29:42.916Z,10.98
2023-05-24T06:32:15.636Z,8.18
2023-05-24T06:34:44.693Z,13.98
2023-05-24T06:37:15.304Z,14.50
2023-05-24T06:39:46.998Z,13.30
2023-05-24T06:42:15.767Z,11.20
2023-05-24T06:44:44.418Z,12.40
2023-05-24T06:47:14.426Z,12.23
2023-05-24T06:49:43.171Z,11.43
2023-05-24T06:52:11.801Z,14.02
2023-05-24T06:54:40.424Z,11.98
2023-05-24T06:57:09.363Z,15.48
2023-05-24T06:59:37.673Z,10.23
2023-05-24T07:02:06.372Z,10.73
2023-05-24T07:04:36.761Z,9.20
2023-05-24T07:07:05.675Z,12.05
2023-05-24T07:09:34.344Z,13.73
2023-05-24T07:12:02.787Z,9.65
2023-05-24T07:14:31.288Z,10.15
2023-05-24T07:17:00.108Z,13.88
2023-05-24T07:19:29.888Z,10.00
2023-05-24T07:22:00.359Z,11.60
2023-05-24T07:24:29.582Z,10.35
2023-05-24T07:26:58.498Z,10.10
2023-05-24T07:29:27.196Z,11.95
2023-05-24T07:31:58.187Z,11.18
2023-05-24T07:34:30.299Z,11.02
2023-05-24T07:37:00.799Z,8.98
2023-05-24T07:39:29.657Z,7.30
2023-05-24T07:41:58.326Z,6.22
2023-05-24T07:44:27.069Z,6.40
2023-05-24T07:46:56.083Z,5.53
2023-05-24T07:49:24.639Z,7.35
2023-05-24T07:51:54.044Z,7.70
2023-05-24T07:54:23.783Z,10.48
2023-05-24T07:56:52.551Z,6.90
2023-05-24T07:59:21.262Z,7.45
2023-05-24T08:01:51.343Z,9.13
2023-05-24T08:04:20.078Z,8.93
2023-05-24T08:06:48.906Z,15.23
2023-05-24T08:09:17.740Z,8.82
2023-05-24T08:11:47.659Z,8.43
2023-05-24T08:14:15.866Z,8.35
2023-05-24T08:16:44.567Z,14.70
2023-05-24T08:19:13.133Z,15.23
2023-05-24T08:21:42.476Z,9.38
2023-05-24T08:24:10.946Z,11.10
2023-05-24T08:26:39.820Z,7.68
2023-05-24T08:29:09.615Z,7.28
2023-05-24T08:31:38.600Z,8.73
2023-05-24T08:34:07.266Z,10.32
2023-05-24T08:36:35.874Z,13.80
2023-05-24T08:39:05.113Z,11.15
2023-05-24T08:41:37.755Z,7.97
2023-05-24T08:44:08.114Z,7.72
2023-05-24T08:46:38.433Z,10.57
2023-05-24T08:49:09.289Z,7.47
2023-05-24T08:51:38.783Z,9.25
2023-05-24T08:54:07.954Z,9.70
2023-05-24T08:56:36.775Z,12.48
2023-05-24T08:59:05.203Z,9.73
2023-05-24T09:01:35.407Z,11.30
2023-05-24T09:04:06.629Z,7.20
2023-05-24T09:06:36.127Z,9.02
2023-05-24T09:09:05.091Z,11.98
2023-05-24T09:11:38.799Z,8.75
2023-05-24T09:14:07.957Z,9.18
2023-05-24T09:16:37.299Z,8.30
2023-05-24T09:19:07.156Z,7.95
2023-05-24T09:21:36.004Z,9.05
2023-05-24T09:24:04.638Z,8.00
2023-05-24T09:26:33.416Z,7.85
2023-05-24T09:29:01.968Z,10.90
2023-05-24T09:31:34.820Z,10.50
2023-05-24T09:34:03.398Z,9.27
2023-05-24T09:36:34.167Z,9.70
2023-05-24T09:39:10.241Z,10.95
2023-05-24T09:41:39.485Z,7.63
2023-05-24T09:44:08.261Z,8.60
2023-05-24T09:46:38.903Z,14.05
2023-05-24T09:49:08.632Z,6.73
2023-05-24T09:51:39.805Z,5.95
2023-05-24T09:54:09.706Z,9.48
2023-05-24T09:56:41.347Z,12.13
2023-05-24T10:01:40.131Z,6.60
2023-05-24T10:04:10.197Z,8.18
2023-05-24T10:06:43.631Z,8.77
2023-05-24T10:09:14.217Z,9.45
2023-05-24T10:11:43.043Z,8.38
2023-05-24T10:14:11.612Z,10.70
2023-05-24T10:16:40.294Z,6.80
2023-05-24T10:19:08.749Z,7.55
2023-05-24T10:21:39.023Z,4.97
2023-05-24T10:24:11.218Z,7.28
2023-05-24T10:26:40.666Z,7.32
2023-05-24T10:29:11.434Z,10.43
2023-05-24T10:31:41.714Z,9.73
2023-05-24T10:34:10.543Z,9.63
2023-05-24T10:36:40.676Z,15.95
2023-05-24T10:39:13.008Z,9.57
2023-05-24T10:41:42.488Z,6.28
2023-05-24T10:44:14.315Z,14.95
2023-05-24T10:47:08.475Z,5.18
2023-05-24T10:49:37.269Z,4.30
2023-05-24T10:52:10.066Z,8.43
2023-05-24T10:54:46.989Z,9.23
2023-05-24T10:57:24.623Z,7.45
2023-05-24T10:59:53.234Z,5.78
2023-05-24T11:02:23.083Z,6.45
2023-05-24T11:04:51.483Z,8.27
2023-05-24T11:07:21.080Z,5.95
2023-05-24T11:09:56.983Z,7.43
2023-05-24T11:12:35.023Z,11.25
2023-05-24T11:15:04.703Z,9.95
2023-05-24T11:18:12.836Z,10.88
2023-05-24T11:20:42.895Z,11.35
2023-05-24T11:23:12.365Z,11.68
2023-05-24T11:25:42.167Z,11.43
2023-05-24T11:28:12.253Z,10.88
2023-05-24T11:30:41.997Z,9.82
2023-05-24T11:33:18.796Z,11.80
2023-05-24T11:35:47.168Z,9.73
2023-05-24T11:38:17.026Z,8.77
2023-05-24T11:40:48.819Z,11.38
2023-05-24T11:43:19.057Z,10.98
2023-05-24T11:45:49.148Z,11.38
2023-05-24T11:48:21.835Z,13.60
2023-05-24T11:50:50.557Z,12.95
2023-05-24T11:53:20.580Z,11.80
2023-05-24T11:55:51.531Z,10.70
2023-05-24T12:00:49.595Z,11.32
2023-05-24T12:03:18.404Z,10.07
2023-05-24T12:05:47.215Z,8.27
2023-05-24T12:08:15.916Z,7.30
2023-05-24T12:10:44.799Z,7.68
2023-05-24T12:13:24.413Z,8.82
2023-05-24T12:15:55.887Z,9.18
2023-05-24T12:18:26.970Z,6.35
2023-05-24T12:20:55.377Z,9.85
2023-05-24T12:23:27.890Z,6.47
2023-05-24T12:25:59.993Z,10.15
2023-05-24T12:28:35.863Z,12.45
2023-05-24T12:31:04.859Z,6.75
2023-05-24T12:33:33.863Z,7.32
2023-05-24T12:36:02.105Z,6.15
2023-05-24T12:38:32.992Z,8.18
2023-05-24T12:41:11.516Z,6.95
2023-05-24T12:43:44.611Z,6.93
2023-05-24T12:48:41.979Z,9.98
2023-05-24T12:51:11.582Z,9.60
2023-05-24T12:53:40.202Z,7.05
2023-05-24T12:56:09.276Z,7.95
2023-05-24T12:58:37.965Z,8.60
2023-05-24T13:01:07.889Z,7.05
2023-05-24T13:03:36.645Z,8.95
2023-05-24T13:06:05.124Z,10.88
2023-05-24T13:08:34.090Z,9.57
2023-05-24T13:11:02.461Z,9.75
2023-05-24T13:13:32.654Z,11.50
2023-05-24T13:16:00.858Z,11.52
2023-05-24T13:18:31.013Z,8.48
2023-05-24T13:21:00.905Z,9.40
2023-05-24T13:23:29.907Z,10.05
2023-05-24T13:25:58.566Z,8.10
2023-05-24T13:28:27.102Z,7.65
2023-05-24T13:30:55.610Z,6.82
2023-05-24T13:33:24.350Z,6.93
2023-05-24T13:35:54.635Z,10.27
2023-05-24T13:38:23.775Z,7.57
2023-05-24T13:40:53.576Z,6.68
2023-05-24T13:43:23.030Z,7.72
2023-05-24T13:45:51.602Z,8.02
2023-05-24T13:48:20.246Z,8.20
2023-05-24T13:50:48.701Z,5.70
2023-05-24T13:53:18.785Z,9.40
2023-05-24T13:55:47.076Z,7.53
2023-05-24T13:58:15.731Z,7.55
2023-05-24T14:00:44.283Z,4.72
2023-05-24T14:03:13.263Z,8.18
2023-05-24T14:05:42.173Z,6.43
2023-05-24T14:08:10.978Z,8.50
2023-05-24T14:10:41.093Z,7.40
2023-05-24T14:13:34.160Z,8.00
2023-05-24T14:16:01.254Z,6.65
2023-05-24T14:18:30.243Z,10.57
2023-05-24T14:20:58.534Z,13.13
2023-05-24T14:23:28.014Z,9.98
2023-05-24T14:25:57.790Z,6.97
2023-05-24T14:28:26.504Z,7.80
2023-05-24T14:30:55.082Z,8.68
2023-05-24T14:33:23.957Z,6.43
2023-05-24T14:35:52.274Z,6.22
2023-05-24T14:38:20.989Z,7.18
2023-05-24T14:40:49.388Z,8.23
2023-05-24T14:43:19.491Z,7.38
2023-05-24T14:45:47.884Z,7.50
2023-05-24T14:48:17.108Z,7.28
2023-05-24T14:50:45.510Z,4.70
2023-05-24T14:53:14.009Z,5.63
2023-05-24T14:55:43.963Z,9.30
2023-05-24T14:58:13.994Z,7.38
2023-05-24T15:00:44.433Z,7.65
2023-05-24T15:03:14.658Z,5.88
2023-05-24T15:05:43.267Z,6.90
2023-05-24T15:08:12.339Z,9.27
2023-05-24T15:10:41.127Z,8.90
2023-05-24T15:13:10.088Z,5.95
2023-05-24T15:15:38.407Z,7.57
2023-05-24T15:18:09.836Z,6.78
2023-05-24T15:20:38.363Z,6.68
2023-05-24T15:23:10.711Z,6.60
2023-05-24T15:25:39.272Z,7.60
2023-05-24T15:28:07.973Z,5.82
2023-05-24T15:30:36.209Z,6.10
2023-05-24T15:33:05.037Z,6.80
2023-05-24T15:35:34.901Z,6.30
2023-05-24T15:38:03.381Z,9.45
2023-05-24T15:40:32.014Z,8.73
2023-05-24T15:43:00.525Z,8.20
2023-05-24T15:45:29.217Z,7.43
2023-05-24T15:47:57.980Z,8.65
2023-05-24T15:50:47.499Z,7.60
2023-05-24T15:53:17.359Z,10.73
2023-05-24T15:55:47.198Z,9.90
2023-05-24T15:58:15.870Z,7.78
2023-05-24T16:00:44.326Z,6.63
2023-05-24T16:03:15.913Z,9.38
2023-05-24T16:08:13.334Z,10.07
2023-05-24T16:10:44.503Z,9.25
2023-05-24T16:13:13.425Z,10.02
2023-05-24T16:15:42.721Z,8.32
2023-05-24T16:18:11.817Z,8.55
2023-05-24T16:20:40.345Z,6.75
2023-05-24T16:23:09.121Z,11.57
2023-05-24T16:25:37.703Z,8.38
2023-05-24T16:28:07.547Z,6.35
2023-05-24T16:30:36.842Z,9.75
2023-05-24T16:33:05.976Z,12.07
2023-05-24T16:35:34.604Z,11.93
2023-05-24T16:38:03.245Z,11.30
2023-05-24T16:40:31.819Z,11.10
2023-05-24T16:43:00.424Z,8.50
2023-05-24T16:45:30.603Z,11.15
2023-05-24T16:47:59.124Z,10.98
2023-05-24T16:50:27.826Z,8.82
2023-05-24T16:52:56.521Z,8.32
2023-05-24T16:55:25.108Z,11.77
2023-05-24T16:57:53.488Z,10.98
2023-05-24T17:00:23.252Z,13.40
2023-05-24T17:02:53.182Z,14.98
2023-05-24T17:05:21.895Z,14.02
2023-05-24T17:07:50.299Z,14.32
2023-05-24T17:10:19.234Z,10.15
2023-05-24T17:12:48.710Z,14.25
2023-05-24T17:15:17.439Z,8.68
2023-05-24T17:17:45.796Z,11.85
2023-05-24T17:20:16.294Z,11.52
2023-05-24T17:22:44.742Z,10.10
2023-05-24T17:25:13.396Z,10.43
2023-05-24T17:27:41.818Z,13.30
2023-05-24T17:30:11.319Z,9.82
2023-05-24T17:32:39.689Z,9.77
2023-05-24T17:35:09.501Z,9.88
2023-05-24T17:37:39.274Z,9.77
2023-05-24T17:40:09.261Z,8.80
2023-05-24T17:42:37.720Z,9.50
2023-05-24T17:45:07.483Z,7.88
2023-05-24T17:47:35.848Z,9.57
2023-05-24T17:50:04.741Z,7.78
2023-05-24T17:52:33.464Z,10.88
2023-05-24T17:55:04.145Z,8.68
2023-05-24T17:57:32.371Z,9.50
2023-05-24T18:00:00.913Z,8.15
2023-05-24T18:02:32.358Z,12.90
2023-05-24T18:05:01.415Z,8.88
2023-05-24T18:07:30.481Z,7.80
2023-05-24T18:10:00.579Z,11.43
2023-05-24T18:12:30.875Z,8.27
2023-05-24T18:14:59.644Z,9.37
2023-05-24T18:17:28.371Z,9.75
2023-05-24T18:19:57.312Z,9.95
2023-05-24T18:22:25.562Z,11.43
2023-05-24T18:24:54.255Z,14.27
2023-05-24T18:27:22.669Z,8.50
2023-05-24T18:29:52.737Z,12.40
2023-05-24T18:32:21.434Z,11.75
2023-05-24T18:34:50.189Z,12.52
2023-05-24T18:37:20.013Z,11.07
2023-05-24T18:39:48.649Z,8.95
2023-05-24T18:42:17.184Z,8.85
2023-05-24T18:44:47.180Z,8.60
2023-05-24T18:47:17.157Z,7.03
2023-05-24T18:49:46.318Z,9.70
2023-05-24T18:52:15.902Z,8.95
2023-05-24T18:54:44.465Z,9.27
2023-05-24T18:57:13.202Z,8.80
2023-05-24T18:59:43.439Z,11.70
2023-05-24T19:02:11.932Z,9.90
2023-05-24T19:04:42.042Z,8.32
2023-05-24T19:07:11.076Z,8.45
2023-05-24T19:09:39.822Z,8.10
2023-05-24T19:12:11.016Z,6.65
2023-05-24T19:14:41.524Z,7.72
2023-05-24T19:17:10.069Z,8.43
2023-05-24T19:19:39.020Z,8.88
2023-05-24T19:22:09.486Z,5.95
2023-05-24T19:24:38.119Z,8.40
2023-05-24T19:27:06.835Z,8.68
2023-05-24T19:29:35.633Z,9.48
2023-05-24T19:32:04.198Z,7.80
2023-05-24T19:34:35.666Z,8.15
2023-05-24T19:37:04.235Z,7.60
2023-05-24T19:39:34.404Z,9.20
2023-05-24T19:42:03.039Z,8.50
2023-05-24T19:44:33.129Z,8.10
2023-05-24T19:47:06.327Z,9.00
2023-05-24T19:49:37.506Z,9.88
2023-05-24T19:52:06.892Z,5.70
2023-05-24T19:54:38.681Z,11.85
2023-05-24T19:57:10.643Z,11.07
2023-05-24T19:59:39.299Z,8.63
2023-05-24T20:02:08.125Z,8.30
2023-05-24T20:04:41.602Z,8.85
2023-05-24T20:07:09.885Z,6.90
2023-05-24T20:09:41.804Z,7.93
2023-05-24T20:12:11.070Z,10.13
2023-05-24T20:14:39.747Z,10.23
2023-05-24T20:17:08.140Z,8.50
2023-05-24T20:19:37.045Z,6.60
2023-05-24T20:22:05.738Z,10.18
2023-05-24T20:24:34.638Z,10.95
2023-05-24T20:27:04.471Z,9.10
2023-05-24T20:29:33.036Z,9.15
2023-05-24T20:32:01.289Z,10.65
2023-05-24T20:34:29.800Z,12.32
2023-05-24T20:36:58.145Z,12.70
2023-05-24T20:39:26.756Z,13.18
2023-05-24T20:41:56.203Z,11.00
2023-05-24T20:44:26.904Z,8.15
2023-05-24T20:46:55.317Z,9.93
2023-05-24T20:49:24.100Z,9.07
2023-05-24T20:51:52.357Z,8.93
2023-05-24T20:54:20.844Z,10.05
2023-05-24T20:56:49.626Z,8.18
2023-05-24T20:59:18.340Z,9.82
2023-05-24T21:01:48.160Z,8.57
2023-05-24T21:04:16.964Z,7.72
2023-05-24T21:06:45.418Z,12.02
2023-05-24T21:09:14.101Z,9.27
2023-05-24T21:11:44.251Z,9.90
2023-05-24T21:14:13.431Z,7.60
2023-05-24T21:16:41.777Z,10.45
2023-05-24T21:19:11.888Z,8.35
2023-05-24T21:21:40.313Z,10.13
2023-05-24T21:24:09.229Z,8.38
2023-05-24T21:26:37.684Z,9.77
2023-05-24T21:29:06.387Z,10.27
2023-05-24T21:31:36.051Z,7.57
2023-05-24T21:34:04.721Z,12.05
2023-05-24T21:36:34.494Z,10.48
2023-05-24T21:39:07.994Z,10.95
2023-05-24T21:41:36.496Z,10.75
2023-05-24T21:44:07.139Z,8.95
2023-05-24T21:46:36.624Z,12.75
2023-05-24T21:49:05.341Z,7.63
2023-05-24T21:51:35.087Z,12.52
2023-05-24T21:54:03.743Z,9.18
2023-05-24T21:56:32.075Z,10.75
2023-05-24T21:59:00.554Z,10.25
2023-05-24T22:01:29.425Z,10.75
2023-05-24T22:03:58.597Z,7.80
2023-05-24T22:06:27.054Z,9.80
2023-05-24T22:09:02.033Z,10.68
2023-05-24T22:11:30.619Z,7.95
2023-05-24T22:13:59.356Z,10.18
2023-05-24T22:16:27.654Z,13.15
2023-05-24T22:18:56.987Z,9.23
2023-05-24T22:21:26.384Z,10.25
2023-05-24T22:23:56.471Z,11.05
2023-05-24T22:26:27.105Z,8.77
2023-05-24T22:29:01.017Z,12.55
2023-05-24T22:31:31.284Z,8.57
2023-05-24T22:34:02.340Z,10.95
2023-05-24T22:36:33.559Z,11.13
2023-05-24T22:39:03.876Z,10.80
2023-05-24T22:41:32.562Z,10.00
2023-05-24T22:44:01.520Z,10.57
2023-05-24T22:46:30.009Z,9.40
2023-05-24T22:49:03.196Z,12.10
2023-05-24T22:51:31.570Z,11.48
2023-05-24T22:54:00.057Z,11.02
2023-05-24T22:56:29.729Z,12.30
2023-05-24T22:58:58.356Z,10.00
2023-05-24T23:01:28.232Z,10.82
2023-05-24T23:04:07.776Z,14.15
2023-05-24T23:06:45.818Z,11.48
2023-05-24T23:09:14.581Z,11.48
2023-05-24T23:11:44.534Z,10.30
2023-05-24T23:14:14.482Z,13.98
2023-05-24T23:16:45.709Z,11.38
2023-05-24T23:19:18.739Z,12.52
2023-05-24T23:21:47.633Z,13.15
2023-05-24T23:24:16.610Z,14.10
2023-05-24T23:26:46.347Z,11.90
2023-05-24T23:29:15.029Z,13.25
2023-05-24T23:31:43.477Z,10.82
2023-05-24T23:34:12.052Z,11.00
2023-05-24T23:36:40.375Z,13.50
2023-05-24T23:39:10.981Z,11.90
2023-05-24T23:41:39.556Z,11.07
2023-05-24T23:44:09.543Z,13.20
2023-05-24T23:46:37.973Z,13.32
2023-05-24T23:49:06.651Z,11.32
2023-05-24T23:51:35.325Z,11.20
2023-05-24T23:54:04.065Z,10.40
2023-05-24T23:56:32.414Z,13.43
2023-05-24T23:59:01.481Z,10.52
